Time;durP1;ratioP1;P1;durP2;ratioP2;P2;SDS_P1;SDS_P2;PMS_P1;PMS_P2;Temp;Humidity;BMP_temperature;BMP_pressure;BME280_temperature;BME280_humidity;BME280_pressure;Samples;Min_cycle;Max_cycle;Signal;HPM_P1;HPM_P2
2022/09/26 00:01:10;;;;;;;43.92;28.40;;;;;;;9.31;100.00;97384.89;1739472;82;21015;-87
2022/09/26 00:03:36;;;;;;;46.58;27.77;;;;;;;9.29;100.00;97387.59;1739194;81;21596;-87
2022/09/26 00:06:05;;;;;;;48.35;33.95;;;;;;;9.30;100.00;97379.74;1739184;82;21247;-84
2022/09/26 00:08:32;;;;;;;45.40;28.73;;;;;;;9.23;100.00;97381.45;1738845;81;21005;-85
2022/09/26 00:11:00;;;;;;;45.33;28.05;;;;;;;9.18;100.00;97366.63;1739059;82;21024;-86
2022/09/26 00:13:27;;;;;;;42.43;26.70;;;;;;;9.11;100.00;97366.16;1739446;81;21009;-85
2022/09/26 00:15:54;;;;;;;42.48;26.90;;;;;;;9.07;100.00;97358.92;1739028;82;21052;-84
2022/09/26 00:18:20;;;;;;;36.35;25.52;;;;;;;9.04;100.00;97358.92;1739104;81;21760;-84
2022/09/26 00:20:46;;;;;;;42.23;26.07;;;;;;;9.02;100.00;97356.52;1738981;82;20881;-88
2022/09/26 00:23:12;;;;;;;43.50;26.87;;;;;;;8.99;100.00;97351.69;1739287;82;21036;-88
2022/09/26 00:25:50;;;;;;;41.77;26.20;;;;;;;8.94;100.00;97350.92;1739371;82;20964;-84
2022/09/26 00:28:16;;;;;;;41.88;25.30;;;;;;;8.92;100.00;97347.70;1739649;82;21032;-86
2022/09/26 00:30:43;;;;;;;41.35;24.80;;;;;;;8.83;100.00;97347.52;1739423;82;21079;-87
2022/09/26 00:33:10;;;;;;;38.50;25.23;;;;;;;8.79;100.00;97353.76;1739405;82;21485;-87
2022/09/26 00:35:37;;;;;;;34.55;23.98;;;;;;;8.74;100.00;97342.47;1739294;82;21032;-87
2022/09/26 00:38:03;;;;;;;37.65;25.43;;;;;;;8.74;100.00;97337.07;1739588;82;21052;-84
2022/09/26 00:40:29;;;;;;;43.95;26.77;;;;;;;8.72;100.00;97341.41;1739480;82;21024;-84
2022/09/26 00:42:55;;;;;;;37.95;22.05;;;;;;;8.71;100.00;97339.77;1737630;81;21133;-87
2022/09/26 00:45:22;;;;;;;45.55;29.35;;;;;;;8.69;100.00;97335.75;1736058;82;20884;-88
2022/09/26 00:48:00;;;;;;;36.08;26.77;;;;;;;8.67;100.00;97333.34;1736345;81;21082;-85
2022/09/26 00:50:31;;;;;;;32.85;22.00;;;;;;;8.63;100.00;97334.17;1751466;81;21013;-87
2022/09/26 00:53:08;;;;;;;31.65;21.48;;;;;;;8.57;100.00;97328.03;1751577;81;20985;-83
2022/09/26 00:55:38;;;;;;;35.55;21.95;;;;;;;8.54;100.00;97324.53;1751400;81;21510;-87
2022/09/26 00:58:35;;;;;;;35.80;23.87;;;;;;;8.53;100.00;97321.56;1751587;81;21032;-87
2022/09/26 01:01:00;;;;;;;37.03;22.77;;;;;;;8.54;100.00;97324.53;1751379;81;20989;-88
2022/09/26 01:03:27;;;;;;;32.03;22.58;;;;;;;8.55;100.00;97328.06;1751638;81;20833;-84
2022/09/26 01:05:53;;;;;;;30.20;19.45;;;;;;;8.53;100.00;97324.81;1751418;81;20973;-87
2022/09/26 01:08:22;;;;;;;33.65;20.32;;;;;;;8.55;100.00;97318.61;1751552;81;21715;-84
2022/09/26 01:10:49;;;;;;;;;;;;;;;8.52;100.00;97317.27;1754052;81;21095;-87
2022/09/26 01:13:15;;;;;;;27.60;18.75;;;;;;;8.50;100.00;97315.94;1751342;81;20548;-87
2022/09/26 01:15:41;;;;;;;32.93;21.75;;;;;;;8.51;100.00;97310.25;1751430;81;21460;-87
2022/09/26 01:18:07;;;;;;;32.65;22.80;;;;;;;8.50;100.00;97316.75;1751631;81;21434;-87
2022/09/26 01:20:50;;;;;;;37.40;23.30;;;;;;;8.50;100.00;97316.75;1751420;81;22047;-88
2022/09/26 01:23:27;;;;;;;35.92;22.90;;;;;;;8.51;100.00;97322.95;1763996;80;21048;-84
2022/09/26 01:26:14;;;;;;;35.58;22.62;;;;;;;8.48;100.00;97324.33;1763147;80;21072;-88
2022/09/26 01:29:14;;;;;;;33.78;21.50;;;;;;;8.43;100.00;97317.61;1760234;80;21473;-87
2022/09/26 01:32:47;;;;;;;36.38;21.77;;;;;;;8.47;100.00;97328.92;1773823;80;21013;-87
2022/09/26 01:34:25;;;;;;;34.95;23.60;;;;;;;8.46;100.00;97323.81;1768935;80;21892;-84
2022/09/26 01:37:29;;;;;;;30.27;21.10;;;;;;;8.46;100.00;97322.47;1771006;80;21556;-87
2022/09/26 01:40:18;;;;;;;30.37;20.75;;;;;;;8.45;100.00;97320.83;1764227;80;21056;-87
2022/09/26 01:43:13;;;;;;;30.55;20.75;;;;;;;8.44;100.00;97317.87;1761276;80;21437;-87
2022/09/26 01:45:55;;;;;;;31.82;19.27;;;;;;;8.46;100.00;97311.12;1749462;81;21063;-84
2022/09/26 01:48:47;;;;;;;25.62;18.25;;;;;;;8.45;100.00;97303.28;1757284;81;21864;-84
2022/09/26 01:51:24;;;;;;;26.60;19.05;;;;;;;8.43;100.00;97296.81;1757068;81;21051;-87
2022/09/26 01:54:10;;;;;;;29.98;21.37;;;;;;;8.44;100.00;97301.13;1757245;80;21098;-87
2022/09/26 01:56:37;;;;;;;30.37;19.98;;;;;;;8.38;100.00;97283.38;1757400;81;21059;-84
2022/09/26 01:59:30;;;;;;;34.70;21.20;;;;;;;8.39;100.00;97287.69;1757236;81;20965;-86
2022/09/26 02:02:01;;;;;;;86.78;41.18;;;;;;;8.35;100.00;97280.42;1716784;83;21064;-87
2022/09/26 02:04:32;;;;;;;32.65;21.20;;;;;;;8.35;100.00;97283.92;1747315;81;21067;-85
2022/09/26 02:07:03;;;;;;;26.07;17.48;;;;;;;8.31;100.00;97268.02;1757508;80;21012;-85
2022/09/26 02:09:44;;;;;;;26.70;17.95;;;;;;;8.28;100.00;97269.91;1757614;81;21441;-87
2022/09/26 02:12:13;;;;;;;32.98;18.70;;;;;;;8.30;100.00;97277.75;1756228;81;21008;-84
2022/09/26 02:14:40;;;;;;;30.12;19.67;;;;;;;8.30;100.00;97272.36;1757576;81;21131;-88
2022/09/26 02:17:11;;;;;;;27.25;18.10;;;;;;;8.30;100.00;97272.36;1757534;81;20992;-87
2022/09/26 02:19:58;;;;;;;37.40;28.98;;;;;;;8.33;100.00;97275.28;1757510;80;21012;-87
2022/09/26 02:22:26;;;;;;;25.65;18.17;;;;;;;8.35;100.00;97273.67;1760716;80;21068;-87
2022/09/26 02:24:52;;;;;;;24.90;18.75;;;;;;;8.36;100.00;97269.34;1773786;80;21440;-87
2022/09/26 02:27:18;;;;;;;29.12;19.60;;;;;;;8.37;100.00;97260.69;1773785;80;21149;-87
2022/09/26 02:29:44;;;;;;;25.17;18.48;;;;;;;8.40;100.00;97261.49;1773732;80;20846;-85
2022/09/26 02:32:14;;;;;;;24.00;17.87;;;;;;;8.35;100.00;97254.78;1745657;80;20945;-87
2022/09/26 02:34:41;;;;;;;29.60;18.65;;;;;;;8.29;100.00;97263.45;1773855;80;21583;-87
2022/09/26 02:37:07;;;;;;;29.70;17.85;;;;;;;8.25;100.00;97256.99;1773667;80;21017;-84
2022/09/26 02:39:33;;;;;;;29.30;20.17;;;;;;;8.23;100.00;97266.47;1770776;80;21166;-87
2022/09/26 02:42:20;;;;;;;28.77;20.65;;;;;;;8.23;100.00;97266.47;1765333;80;21099;-88
2022/09/26 02:45:16;;;;;;;33.42;20.10;;;;;;;8.30;100.00;97266.95;1733404;82;21481;-88
2022/09/26 02:48:13;;;;;;;28.75;18.62;;;;;;;8.32;100.00;97263.42;1733139;82;20983;-88
2022/09/26 02:50:54;;;;;;;27.67;19.15;;;;;;;8.35;100.00;97257.48;1733184;82;21607;-87
2022/09/26 02:53:25;;;;;;;27.58;17.62;;;;;;;8.36;100.00;97255.03;1732758;82;21092;-87
2022/09/26 02:56:06;;;;;;;32.75;19.60;;;;;;;8.38;100.00;97247.48;1732975;82;21016;-87
2022/09/26 02:59:08;;;;;;;26.30;18.65;;;;;;;8.33;100.00;97234.79;1733071;82;20996;-84
2022/09/26 03:01:42;;;;;;;28.32;19.35;;;;;;;8.37;100.00;97241.80;1732980;82;20988;-84
2022/09/26 03:04:22;;;;;;;26.10;18.82;;;;;;;8.39;100.00;97235.59;1733213;82;21079;-87
2022/09/26 03:06:52;;;;;;;28.92;19.37;;;;;;;8.39;100.00;97236.94;1733060;82;21163;-87
2022/09/26 03:09:18;;;;;;;29.85;20.20;;;;;;;8.39;100.00;97236.94;1701620;82;21024;-87
2022/09/26 03:11:44;;;;;;;28.45;18.77;;;;;;;8.40;100.00;97238.55;1733041;82;20892;-84
2022/09/26 03:14:10;;;;;;;35.20;24.92;;;;;;;8.38;100.00;97237.48;1733112;82;20948;-83
2022/09/26 03:16:39;;;;;;;31.52;23.50;;;;;;;8.40;100.00;97234.50;1733061;82;20924;-87
2022/09/26 03:19:29;;;;;;;28.90;19.60;;;;;;;8.42;100.00;97230.41;1701927;82;21077;-84
2022/09/26 03:21:55;;;;;;;27.98;18.82;;;;;;;8.42;100.00;97224.20;1733153;81;21074;-84
2022/09/26 03:24:23;;;;;;;25.35;17.57;;;;;;;8.42;100.00;97208.02;1754618;81;20885;-87
2022/09/26 03:26:49;;;;;;;29.37;19.15;;;;;;;8.51;100.00;97216.30;1754246;81;21008;-85
2022/09/26 03:29:18;;;;;;;27.52;18.35;;;;;;;8.54;100.00;97207.61;1749240;81;21016;-84
2022/09/26 03:31:45;;;;;;;31.95;18.87;;;;;;;8.58;100.00;97210.02;1749349;81;21280;-87
2022/09/26 03:34:11;;;;;;;28.95;20.40;;;;;;;8.60;100.00;97205.93;1754144;81;21055;-88
2022/09/26 03:36:38;;;;;;;28.60;18.48;;;;;;;8.61;100.00;97205.38;1754185;81;21661;-84
2022/09/26 03:39:04;;;;;;;26.82;17.62;;;;;;;8.62;100.00;97205.09;1754284;81;20997;-84
2022/09/26 03:41:30;;;;;;;23.42;17.23;;;;;;;8.62;100.00;97206.44;1754220;81;21282;-85
2022/09/26 03:43:56;;;;;;;23.57;17.45;;;;;;;8.66;100.00;97202.64;1698987;83;21410;-88
2022/09/26 03:46:23;;;;;;;28.10;18.70;;;;;;;8.67;100.00;97209.64;1727521;83;21032;-88
2022/09/26 03:48:49;;;;;;;30.52;18.75;;;;;;;8.70;100.00;97205.02;1728104;81;21461;-85
2022/09/26 03:51:16;;;;;;;26.55;18.25;;;;;;;8.72;100.00;97206.91;1727483;83;21039;-84
2022/09/26 03:53:46;;;;;;;35.48;19.98;;;;;;;8.76;100.00;97199.27;1727671;81;21004;-88
2022/09/26 03:56:15;;;;;;;22.73;16.90;;;;;;;8.80;100.00;97200.04;1727606;83;21228;-88
2022/09/26 03:58:41;;;;;;;;;;;;;;;8.81;100.00;97195.72;1730201;81;21011;-84
2022/09/26 04:01:10;;;;;;;24.63;16.62;;;;;;;8.83;100.00;97196.23;1727703;83;20204;-88
2022/09/26 04:03:38;;;;;;;30.02;18.15;;;;;;;8.84;100.00;97201.89;1726387;81;21268;-84
2022/09/26 04:06:07;;;;;;;22.27;16.95;;;;;;;8.83;100.00;97203.53;1727888;83;21070;-85
2022/09/26 04:08:37;;;;;;;23.00;17.73;;;;;;;8.82;100.00;97198.68;1699466;83;21757;-88
2022/09/26 04:11:10;;;;;;;26.15;17.67;;;;;;;8.85;100.00;97207.55;1699632;83;21007;-88
2022/09/26 04:13:36;;;;;;;24.40;16.87;;;;;;;8.85;100.00;97207.55;1727658;81;21111;-84
2022/09/26 04:16:02;;;;;;;27.27;19.60;;;;;;;8.88;100.00;97205.61;1727738;82;20896;-87
2022/09/26 04:18:28;;;;;;;28.85;18.87;;;;;;;8.88;100.00;97199.41;1727621;81;21055;-88
2022/09/26 04:21:00;;;;;;;29.10;18.75;;;;;;;8.89;100.00;97199.14;1727653;83;22052;-85
2022/09/26 04:23:27;;;;;;;33.40;18.98;;;;;;;8.87;100.00;97193.75;1746198;81;21017;-87
2022/09/26 04:25:53;;;;;;;26.20;18.05;;;;;;;8.89;100.00;97191.59;1757163;81;21068;-85
2022/09/26 04:28:19;;;;;;;25.45;17.82;;;;;;;8.88;100.00;97184.55;1757164;81;21021;-88
2022/09/26 04:30:45;;;;;;;28.75;20.60;;;;;;;8.91;100.00;97179.94;1757324;81;20989;-84
2022/09/26 04:33:11;;;;;;;29.12;17.90;;;;;;;8.93;100.00;97178.55;1757131;81;21146;-88
2022/09/26 04:35:37;;;;;;;31.50;18.35;;;;;;;8.93;100.00;97179.09;1757307;81;21001;-85
2022/09/26 04:38:03;;;;;;;27.55;18.80;;;;;;;8.94;100.00;97179.34;1757386;81;20910;-87
2022/09/26 04:40:30;;;;;;;23.95;17.73;;;;;;;8.95;100.00;97185.00;1757281;81;21054;-88
2022/09/26 04:42:56;;;;;;;24.60;18.77;;;;;;;8.94;100.00;97183.40;1746421;81;21026;-87
2022/09/26 04:45:22;;;;;;;30.75;20.57;;;;;;;8.93;100.00;97181.25;1738733;82;21177;-87
2022/09/26 04:47:49;;;;;;;25.97;19.75;;;;;;;8.95;100.00;97179.05;1738669;82;21942;-84
2022/09/26 04:50:15;;;;;;;29.32;20.75;;;;;;;8.98;100.00;97179.05;1709477;82;21011;-84
2022/09/26 04:52:41;;;;;;;31.30;21.23;;;;;;;9.00;100.00;97182.25;1738649;82;21031;-84
2022/09/26 04:55:08;;;;;;;34.20;20.12;;;;;;;9.01;100.00;97179.25;1738782;82;21044;-87
2022/09/26 04:57:36;;;;;;;29.60;19.60;;;;;;;9.04;100.00;97175.16;1738534;82;21059;-88
2022/09/26 05:00:03;;;;;;;34.25;21.12;;;;;;;9.05;100.00;97173.52;1737472;80;21039;-84
2022/09/26 05:02:29;;;;;;;29.52;21.65;;;;;;;9.05;100.00;97165.41;1744931;80;21098;-85
2022/09/26 05:04:58;;;;;;;27.73;19.98;;;;;;;9.05;100.00;97161.90;1752702;81;20909;-85
2022/09/26 05:07:23;;;;;;;30.12;18.55;;;;;;;9.09;100.00;97160.24;1759460;80;21004;-87
2022/09/26 05:09:48;;;;;;;22.50;16.67;;;;;;;9.10;100.00;97154.29;1752797;80;21217;-84
2022/09/26 05:12:16;;;;;;;41.20;23.18;;;;;;;9.11;100.00;97158.59;1759527;81;20955;-84
2022/09/26 05:14:42;;;;;;;64.82;35.88;;;;;;;9.13;100.00;97156.39;1758286;81;21004;-88
2022/09/26 05:17:09;;;;;;;67.62;36.13;;;;;;;9.16;100.00;97156.64;1757088;81;20995;-84
2022/09/26 05:19:35;;;;;;;38.20;22.00;;;;;;;9.20;100.00;97152.24;1766536;80;21571;-85
2022/09/26 05:22:02;;;;;;;32.78;19.77;;;;;;;9.25;100.00;97151.37;1779322;80;22058;-88
2022/09/26 05:27:13;;;;;;;22.93;16.20;;;;;;;9.37;100.00;97163.10;1782341;80;21059;-84
2022/09/26 05:29:38;;;;;;;28.00;18.70;;;;;;;9.40;100.00;97162.50;1779627;80;21420;-88
2022/09/26 05:32:04;;;;;;;21.68;16.50;;;;;;;9.42;100.00;97163.04;1757743;80;20980;-88
2022/09/26 05:34:30;;;;;;;24.45;15.90;;;;;;;9.43;100.00;97159.23;1758029;80;21829;-88
2022/09/26 05:36:56;;;;;;;23.25;17.82;;;;;;;9.44;100.00;97149.47;1693141;83;21709;-84
2022/09/26 05:42:07;;;;;;;26.55;18.37;;;;;;;9.43;100.00;97151.92;1720839;82;21040;-87
2022/09/26 05:44:33;;;;;;;23.07;17.07;;;;;;;9.43;100.00;97150.58;1726620;83;20870;-85
2022/09/26 05:46:59;;;;;;;25.15;18.35;;;;;;;9.42;100.00;97150.32;1726905;83;21305;-85
2022/09/26 05:49:25;;;;;;;24.35;17.60;;;;;;;9.40;100.00;97148.98;1727233;82;21441;-84
2022/09/26 05:51:52;;;;;;;23.73;16.35;;;;;;;9.41;100.00;97149.27;1726942;82;21051;-84
2022/09/26 05:54:18;;;;;;;24.72;16.57;;;;;;;9.43;100.00;97146.52;1726392;83;21048;-84
2022/09/26 05:56:44;;;;;;;24.87;16.57;;;;;;;9.49;100.00;97147.26;1710133;82;21019;-84
2022/09/26 05:59:10;;;;;;;20.85;15.43;;;;;;;9.53;100.00;97145.56;1726127;82;21147;-84
2022/09/26 06:01:36;;;;;;;22.42;15.95;;;;;;;9.56;100.00;97143.61;1751533;81;20940;-84
2022/09/26 06:04:02;;;;;;;22.37;15.95;;;;;;;9.58;100.00;97140.08;1741109;80;20924;-88
2022/09/26 06:06:28;;;;;;;23.73;16.65;;;;;;;9.60;100.00;97137.88;1734045;81;21037;-88
2022/09/26 06:08:54;;;;;;;24.43;17.57;;;;;;;9.63;100.00;97135.92;1730181;81;21052;-84
2022/09/26 06:11:26;;;;;;;23.45;17.40;;;;;;;9.66;100.00;97138.62;1743066;81;21006;-89
2022/09/26 06:13:51;;;;;;;24.87;16.15;;;;;;;9.69;100.00;97144.23;1730476;81;21030;-88
2022/09/26 06:16:19;;;;;;;25.77;16.55;;;;;;;9.72;100.00;97145.53;1734189;81;21050;-85
2022/09/26 06:18:46;;;;;;;21.82;15.15;;;;;;;9.74;100.00;97142.80;1722893;81;21306;-84
2022/09/26 06:21:14;;;;;;;28.20;20.10;;;;;;;9.78;100.00;97144.36;1771436;80;21039;-84
2022/09/26 06:23:40;;;;;;;36.50;28.27;;;;;;;9.78;100.00;97139.75;1771037;79;21522;-88
2022/09/26 06:26:09;;;;;;;32.28;25.90;;;;;;;9.77;100.00;97139.50;1773281;80;20941;-84
2022/09/26 06:28:35;;;;;;;28.35;21.10;;;;;;;9.83;100.00;97143.73;1757180;80;21040;-84
2022/09/26 06:31:12;;;;;;;24.60;17.70;;;;;;;9.88;100.00;97142.28;1758916;80;21556;-87
2022/09/26 06:33:38;;;;;;;37.23;22.27;;;;;;;9.94;100.00;97145.72;1757463;78;21480;-84
2022/09/26 06:36:07;;;;;;;41.18;24.00;;;;;;;10.01;100.00;97143.44;1725185;83;21700;-87
2022/09/26 06:38:34;;;;;;;64.90;38.13;;;;;;;10.06;100.00;97140.63;1750101;80;21052;-88
2022/09/26 06:41:00;;;;;;;40.63;25.90;;;;;;;10.09;100.00;97131.93;1753216;81;21021;-84
2022/09/26 06:43:25;;;;;;;35.75;24.37;;;;;;;10.14;100.00;97133.73;1716791;80;21543;-88
2022/09/26 06:45:52;;;;;;;34.60;28.30;;;;;;;10.21;100.00;97132.79;1748075;80;20977;-88
2022/09/26 06:48:21;;;;;;;38.70;28.45;;;;;;;10.24;100.00;97134.92;1732685;80;21577;-88
2022/09/26 06:50:54;;;;;;;32.33;22.42;;;;;;;10.33;100.00;97139.09;1732961;81;21059;-88
2022/09/26 06:53:20;;;;;;;29.20;20.52;;;;;;;10.40;100.00;97134.09;1728580;81;21059;-88
2022/09/26 06:55:46;;;;;;;35.00;24.95;;;;;;;10.45;100.00;97133.45;1736645;81;21024;-84
2022/09/26 06:58:12;;;;;;;41.60;32.05;;;;;;;10.53;100.00;97134.66;1729131;81;21064;-84
2022/09/26 07:00:38;;;;;;;45.20;35.43;;;;;;;10.62;100.00;97134.77;1729345;82;20983;-84
2022/09/26 07:03:04;;;;;;;41.40;34.03;;;;;;;10.69;100.00;97134.63;1718560;81;20939;-85
2022/09/26 07:05:30;;;;;;;38.53;33.28;;;;;;;10.79;100.00;97130.09;1728687;82;20916;-84
2022/09/26 07:07:57;;;;;;;36.60;28.17;;;;;;;10.84;100.00;97134.84;1731540;81;21044;-84
2022/09/26 07:10:23;;;;;;;35.55;27.07;;;;;;;10.90;100.00;97131.48;1730108;81;21065;-89
2022/09/26 07:12:49;;;;;;;47.60;39.08;;;;;;;10.95;100.00;97133.55;1731306;81;21066;-89
2022/09/26 07:15:17;;;;;;;42.75;32.17;;;;;;;11.00;100.00;97136.13;1742052;81;21068;-83
2022/09/26 07:17:44;;;;;;;35.98;26.87;;;;;;;11.03;100.00;97131.23;1730605;81;21017;-84
2022/09/26 07:20:13;;;;;;;37.00;28.60;;;;;;;11.03;100.00;97129.33;1743105;81;21077;-89
2022/09/26 07:22:42;;;;;;;35.50;27.82;;;;;;;11.06;100.00;97131.97;1737626;81;20989;-84
2022/09/26 07:25:09;;;;;;;35.17;25.10;;;;;;;11.09;100.00;97130.00;1726910;81;21183;-84
2022/09/26 07:27:36;;;;;;;31.50;21.75;;;;;;;11.12;100.00;97130.77;1721566;81;21019;-88
2022/09/26 07:30:03;;;;;;;40.58;27.58;;;;;;;11.14;100.00;97132.05;1725330;81;21464;-89
2022/09/26 07:32:33;;;;;;;72.03;39.53;;;;;;;11.14;100.00;97137.48;1699101;82;21122;-84
2022/09/26 07:35:02;;;;;;;61.15;37.20;;;;;;;11.13;100.00;97137.23;1730753;81;21729;-90
2022/09/26 07:37:28;;;;;;;39.88;27.32;;;;;;;11.13;100.00;97144.56;1728430;81;22188;-89
2022/09/26 07:39:54;;;;;;;77.32;62.75;;;;;;;11.15;100.00;97140.98;1726876;81;21347;-84
2022/09/26 07:42:20;;;;;;;55.85;43.40;;;;;;;11.12;100.00;97136.98;1727994;81;20905;-89
2022/09/26 07:44:46;;;;;;;29.15;22.00;;;;;;;11.12;100.00;97145.13;1730334;81;21487;-89
2022/09/26 07:50:13;;;;;;;26.82;19.05;;;;;;;11.07;100.00;97134.92;1734669;81;21125;-84
2022/09/26 07:52:42;;;;;;;28.35;19.30;;;;;;;11.08;100.00;97138.69;1726297;81;20968;-84
2022/09/26 07:55:09;;;;;;;;;;;;;;;11.06;100.00;97129.26;1733228;81;21503;-88
2022/09/26 07:57:35;;;;;;;45.98;39.53;;;;;;;11.05;100.00;97135.79;1726903;81;20210;-88
2022/09/26 08:00:06;;;;;;;37.73;27.65;;;;;;;11.02;100.00;97135.83;1727002;81;20995;-84
2022/09/26 08:02:34;;;;;;;53.23;28.77;;;;;;;11.01;100.00;97135.02;1723922;81;21203;-85
2022/09/26 08:05:04;;;;;;;40.08;25.25;;;;;;;10.99;100.00;97139.16;1723593;81;20965;-84
2022/09/26 08:07:34;;;;;;;41.08;26.55;;;;;;;10.99;100.00;97131.82;1707490;81;21348;-88
2022/09/26 08:10:01;;;;;;;49.48;26.75;;;;;;;11.00;100.00;97128.00;1723487;81;21646;-84
2022/09/26 08:12:28;;;;;;;58.87;36.03;;;;;;;11.02;100.00;97127.69;1730546;80;21079;-84
2022/09/26 08:14:55;;;;;;;58.20;35.43;;;;;;;11.03;100.00;97133.39;1727886;81;21531;-90
2022/09/26 08:17:21;;;;;;;48.78;32.60;;;;;;;11.05;100.00;97129.81;1741997;79;21000;-89
2022/09/26 08:19:46;;;;;;;207.37;99.97;;;;;;;11.06;100.00;97131.97;1732933;81;20908;-90
2022/09/26 08:22:13;;;;;;;103.22;55.73;;;;;;;11.08;100.00;97133.81;1728960;81;20909;-85
2022/09/26 08:24:39;;;;;;;55.98;40.05;;;;;;;11.06;100.00;97125.19;1729053;81;21075;-89
2022/09/26 08:27:05;;;;;;;38.25;29.70;;;;;;;11.04;100.00;97127.41;1730023;81;21048;-89
2022/09/26 08:29:31;;;;;;;36.68;25.68;;;;;;;11.03;100.00;97133.39;1733586;81;21173;-89
2022/09/26 08:31:59;;;;;;;41.30;30.43;;;;;;;11.01;100.00;97135.02;1732950;81;20962;-90
2022/09/26 08:34:25;;;;;;;31.00;23.12;;;;;;;10.98;100.00;97129.42;1708678;83;21059;-85
2022/09/26 08:36:53;;;;;;;28.02;21.85;;;;;;;10.98;100.00;97137.55;1720109;81;20932;-89
2022/09/26 08:39:20;;;;;;;29.77;22.20;;;;;;;10.97;100.00;97134.04;1732702;81;21083;-84
2022/09/26 08:42:07;;;;;;;116.17;57.13;;;;;;;10.98;100.00;97141.06;1729436;81;21642;-84
2022/09/26 08:46:07;;;;;;;73.02;38.78;;;;;;;10.98;100.00;97137.00;1734427;81;21074;-85
2022/09/26 08:47:46;;;;;;;27.30;20.15;;;;;;;10.93;100.00;97132.22;1735397;81;21307;-88
2022/09/26 08:50:32;;;;;;;20.68;16.55;;;;;;;10.93;100.00;97139.80;1708960;81;21144;-89
2022/09/26 08:53:02;;;;;;;44.75;33.42;;;;;;;10.93;100.00;97137.09;1733449;79;21975;-90
2022/09/26 08:55:34;;;;;;;62.15;35.33;;;;;;;10.94;100.00;97136.56;1741879;81;21134;-90
2022/09/26 08:58:04;;;;;;;45.78;30.15;;;;;;;10.95;100.00;97136.81;1740919;79;21088;-84
2022/09/26 09:00:32;;;;;;;36.58;25.82;;;;;;;10.93;100.00;97139.80;1729062;81;21171;-84
2022/09/26 09:03:07;;;;;;;33.83;22.85;;;;;;;10.92;100.00;97135.48;1738093;81;21024;-90
2022/09/26 09:05:40;;;;;;;48.30;41.95;;;;;;;10.92;100.00;97133.33;1725498;81;21614;-91
2022/09/26 09:08:21;;;;;;;43.55;30.45;;;;;;;10.93;100.00;97138.44;1726983;81;21011;-84
2022/09/26 09:11:00;;;;;;;27.55;21.23;;;;;;;10.97;100.00;97135.95;1725005;81;21039;-90
2022/09/26 09:13:51;;;;;;;30.48;23.35;;;;;;;11.00;100.00;97138.04;1722606;81;21130;-84
2022/09/26 09:16:34;;;;;;;32.20;25.77;;;;;;;11.01;100.00;97139.64;1721522;81;21082;-85
2022/09/26 09:19:07;;;;;;;21.68;17.62;;;;;;;11.07;100.00;97134.38;1721770;81;21127;-90
2022/09/26 09:22:02;;;;;;;19.70;15.75;;;;;;;11.07;100.00;97134.92;1717338;81;20988;-89
2022/09/26 09:24:51;;;;;;;21.62;17.20;;;;;;;11.07;100.00;97137.64;1723905;81;20976;-84
2022/09/26 09:27:45;;;;;;;;;;;;;;;11.12;100.00;97136.19;1725953;81;21099;-90
2022/09/26 09:30:24;;;;;;;23.25;15.75;;;;;;;11.16;100.00;97133.09;1722692;81;20434;-89
2022/09/26 09:33:00;;;;;;;21.07;17.10;;;;;;;11.19;100.00;97131.92;1728527;81;21933;-84
2022/09/26 09:35:57;;;;;;;38.17;30.90;;;;;;;11.23;100.00;97134.84;1706525;81;21098;-84
2022/09/26 09:38:27;;;;;;;53.30;34.27;;;;;;;11.26;100.00;97132.87;1727944;81;21098;-90
2022/09/26 09:41:04;;;;;;;43.58;29.00;;;;;;;11.31;100.00;97130.06;1729492;81;21602;-85
2022/09/26 09:43:48;;;;;;;32.78;24.32;;;;;;;11.39;100.00;97132.60;1737519;81;21119;-85
2022/09/26 09:46:27;;;;;;;75.15;41.65;;;;;;;11.45;100.00;97135.42;1735483;81;21978;-90
2022/09/26 09:49:01;;;;;;;47.98;42.05;;;;;;;11.52;100.00;97130.38;1732425;80;25923;-84
2022/09/26 09:52:04;;;;;;;58.48;48.20;;;;;;;11.59;100.00;97124.78;1724260;81;21091;-84
2022/09/26 09:54:54;;;;;;;45.17;32.55;;;;;;;11.69;100.00;97131.88;1734161;81;21079;-85
2022/09/26 09:57:40;;;;;;;52.15;36.17;;;;;;;11.78;100.00;97131.94;1723265;81;21574;-91
2022/09/26 10:00:16;;;;;;;43.75;28.20;;;;;;;11.80;100.00;97131.92;1730623;81;21072;-91
2022/09/26 10:03:04;;;;;;;39.58;29.98;;;;;;;11.91;100.00;97128.39;1732488;80;20989;-91
2022/09/26 10:05:52;;;;;;;29.15;22.90;;;;;;;12.02;100.00;97124.86;1727576;81;21471;-84
2022/09/26 10:08:25;;;;;;;36.38;25.17;;;;;;;12.17;100.00;97127.75;1733493;80;21033;-90
2022/09/26 10:11:25;;;;;;;57.62;43.42;;;;;;;12.30;100.00;97129.00;1722972;81;21022;-91
2022/09/26 10:13:58;;;;;;;26.33;20.43;;;;;;;12.42;100.00;97127.87;1731582;81;21149;-90
2022/09/26 10:16:25;;;;;;;26.65;17.82;;;;;;;12.59;100.00;97126.35;1729429;81;21636;-91
2022/09/26 10:19:08;;;;;;;31.55;25.62;;;;;;;12.80;100.00;97124.66;1721440;81;21536;-89
2022/09/26 10:21:42;;;;;;;22.62;18.07;;;;;;;12.97;100.00;97120.61;1718398;81;21465;-85
2022/09/26 10:24:27;;;;;;;33.05;21.95;;;;;;;13.15;100.00;97123.37;1731721;81;20976;-85
2022/09/26 10:26:53;;;;;;;22.80;16.95;;;;;;;13.33;100.00;97119.61;1727660;81;21101;-85
2022/09/26 10:29:37;;;;;;;43.52;21.00;;;;;;;13.40;100.00;97119.11;1731699;81;20973;-85
2022/09/26 10:32:00;;;;;;;20.97;13.40;;;;;;;13.52;100.00;97107.04;1707534;81;21074;-85
2022/09/26 10:34:33;;;;;;;22.32;13.65;;;;;;;13.63;100.00;97105.59;1728864;81;21477;-90
2022/09/26 10:37:27;;;;;;;21.50;14.85;;;;;;;13.67;100.00;97101.12;1726505;81;21190;-85
2022/09/26 10:42:38;;;;;;;31.90;18.23;;;;;;;13.94;100.00;97105.41;1727520;81;20985;-85
2022/09/26 10:45:12;;;;;;;19.98;13.18;;;;;;;13.99;100.00;97098.97;1731890;81;21602;-91
2022/09/26 10:47:39;;;;;;;32.33;19.40;;;;;;;14.02;100.00;97097.78;1717685;81;21047;-89
2022/09/26 10:50:20;;;;;;;24.00;15.55;;;;;;;14.09;100.00;97093.17;1728677;81;21102;-89
2022/09/26 10:52:50;;;;;;;16.80;10.13;;;;;;;14.16;100.00;97093.48;1729688;81;21827;-85
2022/09/26 10:55:24;;;;;;;24.02;12.37;;;;;;;14.32;100.00;97089.10;1732628;81;21064;-85
2022/09/26 10:57:53;;;;;;;24.82;12.10;;;;;;;14.43;100.00;97097.70;1729797;81;21035;-90
2022/09/26 11:00:39;;;;;;;17.67;12.03;;;;;;;14.57;100.00;97097.53;1732295;81;21183;-85
2022/09/26 11:03:13;;;;;;;14.03;10.35;;;;;;;14.76;100.00;97087.58;1716711;81;21040;-85
2022/09/26 11:05:56;;;;;;;12.30;9.00;;;;;;;14.83;100.00;97091.95;1715105;81;21275;-87
2022/09/26 11:08:33;;;;;;;11.50;9.05;;;;;;;15.04;100.00;97085.98;1727136;81;21482;-86
2022/09/26 11:11:10;;;;;;;11.05;8.53;;;;;;;15.11;100.00;97082.70;1723906;81;21566;-84
2022/09/26 11:13:43;;;;;;;12.33;8.88;;;;;;;15.33;100.00;97087.86;1727855;81;21540;-84
2022/09/26 11:16:12;;;;;;;9.78;8.28;;;;;;;15.64;100.00;97071.67;1698204;82;21432;-84
2022/09/26 11:18:58;;;;;;;9.45;8.28;;;;;;;15.76;100.00;97070.34;1767864;79;21819;-84
2022/09/26 11:21:33;;;;;;;10.48;8.50;;;;;;;15.78;100.00;97068.86;1749928;81;21120;-84
2022/09/26 11:24:36;;;;;;;59.33;49.67;;;;;;;15.83;100.00;97062.40;1754701;80;21499;-87
2022/09/26 11:27:30;;;;;;;10.00;8.48;;;;;;;15.90;100.00;97050.93;1726574;81;21661;-88
2022/09/26 11:30:00;;;;;;;36.53;32.48;;;;;;;15.82;100.00;97048.52;1706901;82;21088;-89
2022/09/26 11:32:41;;;;;;;13.70;11.20;;;;;;;15.72;100.00;97042.08;1727653;81;21881;-90
2022/09/26 11:35:32;;;;;;;10.50;7.45;;;;;;;15.73;100.00;97036.87;1729695;81;21091;-86
2022/09/26 11:38:24;;;;;;;9.28;7.12;;;;;;;15.77;100.00;97033.12;1713563;81;21063;-89
2022/09/26 11:41:08;;;;;;;18.70;13.38;;;;;;;15.76;100.00;97034.27;1737719;80;21035;-86
2022/09/26 11:43:45;;;;;;;16.05;14.53;;;;;;;15.71;100.00;97029.56;1754071;80;21046;-89
2022/09/26 11:46:59;;;;;;;7.92;6.42;;;;;;;15.71;100.00;97027.63;1763805;80;21143;-89
2022/09/26 11:49:48;;;;;;;4.92;4.33;;;;;;;15.72;100.00;97025.70;1723975;81;21054;-89